createdAt,value
2023-02-21T00:00:05.567Z,100897.41
2023-02-21T00:02:58.603Z,100889.78
2023-02-21T00:05:45.133Z,100894.28
2023-02-21T00:08:31.774Z,100889.00
2023-02-21T00:11:18.134Z,100892.53
2023-02-21T00:14:04.564Z,100886.78
2023-02-21T00:16:52.385Z,100890.53
2023-02-21T00:19:38.528Z,100891.09
2023-02-21T00:22:25.033Z,100890.06
2023-02-21T00:25:11.609Z,100887.47
2023-02-21T00:27:57.975Z,100888.91
2023-02-21T00:30:44.775Z,100889.13
2023-02-21T00:33:33.154Z,100889.22
2023-02-21T00:36:19.682Z,100885.06
2023-02-21T00:39:05.770Z,100889.22
2023-02-21T00:41:52.299Z,100884.28
2023-02-21T00:44:38.431Z,100885.06
2023-02-21T00:47:24.744Z,100874.13
2023-02-21T00:50:12.504Z,100877.44
2023-02-21T00:52:58.699Z,100882.19
2023-02-21T00:55:45.213Z,100876.84
2023-02-21T00:58:31.378Z,100880.22
2023-02-21T01:01:18.258Z,100885.38
2023-02-21T01:04:04.864Z,100880.53
2023-02-21T01:06:52.971Z,100877.88
2023-02-21T01:09:39.257Z,100880.22
2023-02-21T01:12:25.852Z,100871.13
2023-02-21T01:15:12.302Z,100882.09
2023-02-21T01:17:58.647Z,100882.59
2023-02-21T01:20:45.344Z,100879.88
2023-02-21T01:23:33.219Z,100870.97
2023-02-21T01:26:19.439Z,100868.38
2023-02-21T01:29:06.529Z,100877.72
2023-02-21T01:31:52.804Z,100875.31
2023-02-21T01:34:38.907Z,100871.84
2023-02-21T01:37:25.085Z,100874.16
2023-02-21T01:40:12.957Z,100876.72
2023-02-21T01:43:01.975Z,100880.53
2023-02-21T01:46:07.009Z,100879.22
2023-02-21T01:48:55.199Z,100875.88
2023-02-21T01:51:46.799Z,100877.03
2023-02-21T01:54:35.187Z,100873.28
2023-02-21T01:57:24.531Z,100873.06
2023-02-21T02:00:15.132Z,100864.06
2023-02-21T02:03:14.297Z,100867.53
2023-02-21T02:06:05.005Z,100859.94
2023-02-21T02:08:53.778Z,100856.50
2023-02-21T02:12:05.048Z,100855.72
2023-02-21T02:15:33.452Z,100849.88
2023-02-21T02:18:25.562Z,100853.53
2023-02-21T02:21:37.952Z,100845.66
2023-02-21T02:24:43.861Z,100847.19
2023-02-21T02:27:37.624Z,100849.88
2023-02-21T02:30:49.551Z,100850.94
2023-02-21T02:33:58.812Z,100847.78
2023-02-21T02:36:36.550Z,100851.13
2023-02-21T02:39:22.497Z,100857.97
2023-02-21T02:42:09.132Z,100853.72
2023-02-21T02:44:42.497Z,100853.13
2023-02-21T02:47:19.465Z,100858.06
2023-02-21T02:49:51.486Z,100857.97
2023-02-21T02:52:20.836Z,100855.06
2023-02-21T02:55:00.092Z,100855.34
2023-02-21T02:57:38.244Z,100840.78
2023-02-21T03:00:10.751Z,100853.00
2023-02-21T03:02:57.469Z,100847.94
2023-02-21T03:05:44.427Z,100847.94
2023-02-21T03:08:28.019Z,100849.59
2023-02-21T03:11:08.971Z,100844.63
2023-02-21T03:13:47.632Z,100846.91
2023-02-21T03:16:25.658Z,100854.69
2023-02-21T03:19:01.840Z,100853.63
2023-02-21T03:21:38.200Z,100851.53
2023-02-21T03:24:15.979Z,100852.19
2023-02-21T03:26:49.593Z,100856.09
2023-02-21T03:29:41.811Z,100858.91
2023-02-21T03:32:15.856Z,100857.84
2023-02-21T03:34:44.801Z,100864.47
2023-02-21T03:37:28.648Z,100860.16
2023-02-21T03:39:58.092Z,100869.03
2023-02-21T03:42:26.259Z,100864.91
2023-02-21T03:44:54.819Z,100867.66
2023-02-21T03:47:23.974Z,100873.03
2023-02-21T03:49:53.013Z,100869.44
2023-02-21T03:52:21.392Z,100873.69
2023-02-21T03:54:49.280Z,100874.69
2023-02-21T03:57:22.979Z,100875.56
2023-02-21T03:59:51.526Z,100877.31
2023-02-21T04:02:19.631Z,100885.00
2023-02-21T04:04:48.751Z,100880.47
2023-02-21T04:07:21.277Z,100876.75
2023-02-21T04:09:50.616Z,100885.81
2023-02-21T04:12:28.760Z,100876.09
2023-02-21T04:14:58.607Z,100885.19
2023-02-21T04:17:27.723Z,100885.94
2023-02-21T04:19:57.836Z,100888.69
2023-02-21T04:22:26.094Z,100878.28
2023-02-21T04:24:54.483Z,100882.50
2023-02-21T04:27:27.065Z,100886.91
2023-02-21T04:29:58.537Z,100880.75
2023-02-21T04:32:27.139Z,100890.44
2023-02-21T04:34:56.095Z,100889.47
2023-02-21T04:37:25.379Z,100890.91
2023-02-21T04:39:53.889Z,100885.63
2023-02-21T04:42:21.958Z,100892.72
2023-02-21T04:44:59.648Z,100891.59
2023-02-21T04:47:29.928Z,100900.22
2023-02-21T04:49:58.637Z,100894.28
2023-02-21T04:52:26.564Z,100889.00
2023-02-21T04:54:54.439Z,100889.00
2023-02-21T04:57:22.396Z,100892.44
2023-02-21T04:59:57.830Z,100886.81
2023-02-21T05:02:27.266Z,100887.69
2023-02-21T05:04:56.410Z,100891.78
2023-02-21T05:07:24.260Z,100883.13
2023-02-21T05:09:52.451Z,100886.59
2023-02-21T05:12:20.363Z,100883.03
2023-02-21T05:14:48.172Z,100880.44
2023-02-21T05:17:16.048Z,100881.88
2023-02-21T05:19:43.982Z,100885.06
2023-02-21T05:22:13.137Z,100892.50
2023-02-21T05:24:45.003Z,100894.94
2023-02-21T05:27:15.632Z,100897.06
2023-02-21T05:29:47.964Z,100886.00
2023-02-21T05:32:18.814Z,100890.25
2023-02-21T05:34:47.747Z,100886.47
2023-02-21T05:37:21.081Z,100885.28
2023-02-21T05:39:49.327Z,100874.56
2023-02-21T05:42:17.354Z,100875.81
2023-02-21T05:44:46.034Z,100875.28
2023-02-21T05:47:15.031Z,100875.91
2023-02-21T05:49:43.440Z,100878.75
2023-02-21T05:52:13.419Z,100881.44
2023-02-21T05:54:43.110Z,100877.75
2023-02-21T05:57:11.408Z,100875.22
2023-02-21T05:59:39.715Z,100887.97
2023-02-21T06:02:07.585Z,100881.84
2023-02-21T06:04:35.410Z,100881.28
2023-02-21T06:07:03.205Z,100871.50
2023-02-21T06:09:31.087Z,100872.69
2023-02-21T06:12:00.369Z,100873.31
2023-02-21T06:14:28.179Z,100876.78
2023-02-21T06:16:55.970Z,100872.16
2023-02-21T06:19:23.914Z,100870.63
2023-02-21T06:21:51.950Z,100878.84
2023-02-21T06:24:19.807Z,100868.94
2023-02-21T06:26:47.639Z,100870.72
2023-02-21T06:29:17.083Z,100863.66
2023-02-21T06:31:44.922Z,100858.28
2023-02-21T06:34:13.262Z,100861.59
2023-02-21T06:36:41.357Z,100870.38
2023-02-21T06:39:10.749Z,100868.28
2023-02-21T06:41:38.555Z,100872.69
2023-02-21T06:44:06.339Z,100874.44
2023-02-21T06:46:37.664Z,100866.75
2023-02-21T06:49:05.552Z,100872.03
2023-02-21T06:51:35.510Z,100877.53
2023-02-21T06:54:04.459Z,100868.06
2023-02-21T06:56:32.325Z,100871.16
2023-02-21T06:59:00.283Z,100870.25
2023-02-21T07:01:30.666Z,100870.03
2023-02-21T07:04:00.459Z,100872.03
2023-02-21T07:06:29.813Z,100870.91
2023-02-21T07:08:57.913Z,100878.75
2023-02-21T07:11:28.569Z,100874.56
2023-02-21T07:13:59.463Z,100879.59
2023-02-21T07:16:28.232Z,100873.91
2023-02-21T07:18:55.988Z,100871.81
2023-02-21T07:21:26.990Z,100869.84
2023-02-21T07:23:54.933Z,100873.69
2023-02-21T07:26:22.762Z,100874.34
2023-02-21T07:28:50.729Z,100884.03
2023-02-21T07:31:20.713Z,100880.56
2023-02-21T07:33:50.034Z,100878.63
2023-02-21T07:36:18.286Z,100885.13
2023-02-21T07:38:47.431Z,100885.00
2023-02-21T07:41:17.107Z,100882.88
2023-02-21T07:43:45.108Z,100893.25
2023-02-21T07:46:15.393Z,100892.56
2023-02-21T07:48:43.304Z,100895.63
2023-02-21T07:51:11.119Z,100902.56
2023-02-21T07:53:38.954Z,100901.13
2023-02-21T07:56:08.195Z,100916.59
2023-02-21T07:58:37.291Z,100909.28
2023-02-21T08:01:06.522Z,100913.03
2023-02-21T08:03:34.506Z,100915.66
2023-02-21T08:06:02.440Z,100920.81
2023-02-21T08:08:30.327Z,100909.31
2023-02-21T08:10:58.260Z,100908.09
2023-02-21T08:13:27.351Z,100907.09
2023-02-21T08:15:55.136Z,100904.09
2023-02-21T08:18:24.778Z,100909.06
2023-02-21T08:20:53.953Z,100907.44
2023-02-21T08:23:22.121Z,100914.25
2023-02-21T08:25:50.249Z,100919.66
2023-02-21T08:28:18.207Z,100922.34
2023-02-21T08:30:47.596Z,100924.94
2023-02-21T08:33:15.354Z,100923.41
2023-02-21T08:35:43.685Z,100926.13
2023-02-21T08:38:11.627Z,100926.75
2023-02-21T08:40:39.426Z,100924.38
2023-02-21T08:43:07.260Z,100928.78
2023-02-21T08:45:35.110Z,100931.34
2023-02-21T08:48:04.643Z,100932.81
2023-02-21T08:50:33.355Z,100935.88
2023-02-21T08:53:01.211Z,100933.97
2023-02-21T08:55:29.074Z,100924.69
2023-02-21T08:57:56.928Z,100923.47
2023-02-21T09:00:28.495Z,100922.16
2023-02-21T09:02:58.081Z,100919.38
2023-02-21T09:05:31.273Z,100927.75
2023-02-21T09:08:01.973Z,100925.84
2023-02-21T09:10:35.719Z,100913.47
2023-02-21T09:13:05.806Z,100920.88
2023-02-21T09:15:34.139Z,100918.59
2023-02-21T09:18:02.056Z,100922.25
2023-02-21T09:20:31.195Z,100921.28
2023-02-21T09:22:59.025Z,100924.56
2023-02-21T09:25:26.928Z,100918.38
2023-02-21T09:27:55.108Z,100920.94
2023-02-21T09:30:26.832Z,100907.91
2023-02-21T09:32:56.155Z,100915.75
2023-02-21T09:35:23.996Z,100911.13
2023-02-21T09:37:53.316Z,100912.66
2023-02-21T09:40:35.855Z,100914.91
2023-02-21T09:43:09.483Z,100909.47
2023-02-21T09:45:38.753Z,100908.59
2023-02-21T09:48:12.398Z,100912.44
2023-02-21T09:50:46.528Z,100905.50
2023-02-21T09:53:26.623Z,100914.38
2023-02-21T09:56:00.144Z,100907.16
2023-02-21T09:58:28.307Z,100916.53
2023-02-21T10:01:02.106Z,100916.06
2023-02-21T10:03:47.192Z,100906.63
2023-02-21T10:06:33.308Z,100914.13
2023-02-21T10:09:08.374Z,100914.22
2023-02-21T10:11:54.328Z,100909.06
2023-02-21T10:14:34.286Z,100907.34
2023-02-21T10:17:15.787Z,100912.75
2023-02-21T10:19:49.498Z,100912.09
2023-02-21T10:22:22.138Z,100914.09
2023-02-21T10:24:53.069Z,100914.13
2023-02-21T10:27:25.114Z,100915.25
2023-02-21T10:30:04.750Z,100924.16
2023-02-21T10:32:33.424Z,100918.19
2023-02-21T10:35:01.259Z,100921.22
2023-02-21T10:37:40.658Z,100927.88
2023-02-21T10:40:34.366Z,100922.59
2023-02-21T10:43:11.134Z,100912.88
2023-02-21T10:45:46.815Z,100925.22
2023-02-21T10:48:18.192Z,100924.94
2023-02-21T10:50:52.081Z,100929.25
2023-02-21T10:53:29.379Z,100923.44
2023-02-21T10:56:24.307Z,100929.03
2023-02-21T10:58:56.451Z,100921.66
2023-02-21T11:01:36.958Z,100920.94
2023-02-21T11:04:07.603Z,100928.88
2023-02-21T11:06:38.695Z,100915.81
2023-02-21T11:09:31.408Z,100922.81
2023-02-21T11:12:17.999Z,100916.59
2023-02-21T11:15:07.299Z,100916.53
2023-02-21T11:17:35.167Z,100919.25
2023-02-21T11:20:17.931Z,100924.16
2023-02-21T11:22:49.360Z,100919.16
2023-02-21T11:25:24.449Z,100914.63
2023-02-21T11:28:05.420Z,100913.88
2023-02-21T11:30:37.386Z,100917.59
2023-02-21T11:33:07.765Z,100916.63
2023-02-21T11:35:44.113Z,100913.59
2023-02-21T11:38:32.775Z,100905.06
2023-02-21T11:41:00.817Z,100908.50
2023-02-21T11:43:30.994Z,100906.09
2023-02-21T11:46:19.048Z,100909.34
2023-02-21T11:49:01.948Z,100901.44
2023-02-21T11:51:46.357Z,100900.75
2023-02-21T11:54:15.223Z,100896.66
2023-02-21T11:56:52.092Z,100898.28
2023-02-21T11:59:35.805Z,100895.69
2023-02-21T12:02:54.245Z,100896.75
2023-02-21T12:05:45.440Z,100898.38
2023-02-21T12:08:38.170Z,100889.56
2023-02-21T12:11:29.553Z,100884.78
2023-02-21T12:14:16.220Z,100885.00
2023-02-21T12:17:04.938Z,100877.66
2023-02-21T12:19:53.967Z,100878.44
2023-02-21T12:22:45.984Z,100871.06
2023-02-21T12:25:29.525Z,100878.06
2023-02-21T12:28:12.953Z,100866.88
2023-02-21T12:31:12.221Z,100865.72
2023-02-21T12:33:57.286Z,100870.59
2023-02-21T12:36:46.159Z,100866.44
2023-02-21T12:39:32.916Z,100863.72
2023-02-21T12:42:28.369Z,100860.22
2023-02-21T12:45:16.596Z,100868.94
2023-02-21T12:47:54.021Z,100862.63
2023-02-21T12:50:33.045Z,100855.72
2023-02-21T12:53:10.164Z,100858.16
2023-02-21T12:55:46.057Z,100849.72
2023-02-21T12:58:25.037Z,100845.56
2023-02-21T13:00:58.974Z,100846.72
2023-02-21T13:03:42.384Z,100843.25
2023-02-21T13:06:20.914Z,100845.44
2023-02-21T13:09:07.787Z,100855.22
2023-02-21T13:11:43.402Z,100846.94
2023-02-21T13:14:18.417Z,100840.34
2023-02-21T13:16:46.393Z,100838.03
2023-02-21T13:19:15.908Z,100843.13
2023-02-21T13:22:07.515Z,100839.50
2023-02-21T13:25:07.006Z,100838.16
2023-02-21T13:28:00.194Z,100833.44
2023-02-21T13:30:40.139Z,100820.00
2023-02-21T13:33:26.301Z,100812.13
2023-02-21T13:35:57.754Z,100807.03
2023-02-21T13:38:32.340Z,100818.06
2023-02-21T13:41:16.765Z,100809.06
2023-02-21T13:43:51.352Z,100810.47
2023-02-21T13:47:06.930Z,100802.38
2023-02-21T13:49:48.089Z,100806.94
2023-02-21T13:53:01.804Z,100804.97
2023-02-21T13:55:32.158Z,100804.16
2023-02-21T13:58:37.380Z,100809.16
2023-02-21T14:01:38.634Z,100799.31
2023-02-21T14:04:59.420Z,100792.47
2023-02-21T14:07:56.195Z,100800.16
2023-02-21T14:10:37.489Z,100803.09
2023-02-21T14:13:21.227Z,100798.69
2023-02-21T14:15:58.459Z,100798.53
2023-02-21T14:18:31.355Z,100802.94
2023-02-21T14:21:02.054Z,100807.25
2023-02-21T14:23:45.576Z,100798.63
2023-02-21T14:26:42.394Z,100798.53
2023-02-21T14:29:31.489Z,100797.84
2023-02-21T14:32:28.581Z,100803.84
2023-02-21T14:34:59.839Z,100797.88
2023-02-21T14:37:35.528Z,100796.50
2023-02-21T14:40:19.889Z,100794.34
2023-02-21T14:43:08.977Z,100796.50
2023-02-21T14:45:57.828Z,100788.88
2023-02-21T14:48:55.702Z,100789.16
2023-02-21T14:52:18.737Z,100790.66
2023-02-21T14:55:32.661Z,100791.88
2023-02-21T14:58:48.885Z,100783.75
2023-02-21T15:01:40.957Z,100783.34
2023-02-21T15:04:20.887Z,100783.03
2023-02-21T15:07:08.043Z,100784.31
2023-02-21T15:09:35.911Z,100783.50
2023-02-21T15:12:10.322Z,100789.16
2023-02-21T15:14:49.863Z,100788.84
2023-02-21T15:17:23.117Z,100787.13
2023-02-21T15:20:05.815Z,100785.88
2023-02-21T15:22:33.914Z,100778.25
2023-02-21T15:25:20.268Z,100779.78
2023-02-21T15:27:59.145Z,100785.25
2023-02-21T15:30:35.332Z,100780.16
2023-02-21T15:33:14.744Z,100778.88
2023-02-21T15:35:50.321Z,100784.53
2023-02-21T15:38:26.249Z,100775.69
2023-02-21T15:41:00.293Z,100774.09
2023-02-21T15:43:38.923Z,100770.41
2023-02-21T15:46:16.369Z,100774.81
2023-02-21T15:48:44.663Z,100772.09
2023-02-21T15:51:13.484Z,100773.06
2023-02-21T15:53:41.534Z,100774.97
2023-02-21T15:56:24.069Z,100775.25
2023-02-21T15:59:17.629Z,100772.06
2023-02-21T16:02:15.970Z,100774.03
2023-02-21T16:04:46.559Z,100778.34
2023-02-21T16:07:21.556Z,100774.72
2023-02-21T16:09:59.560Z,100781.34
2023-02-21T16:12:37.613Z,100781.50
2023-02-21T16:15:19.455Z,100772.88
2023-02-21T16:17:55.114Z,100780.28
2023-02-21T16:20:27.038Z,100775.53
2023-02-21T16:23:23.397Z,100776.22
2023-02-21T16:25:57.812Z,100783.53
2023-02-21T16:28:25.936Z,100775.75
2023-02-21T16:30:55.654Z,100775.88
2023-02-21T16:33:25.788Z,100773.38
2023-02-21T16:35:54.153Z,100767.38
2023-02-21T16:38:24.765Z,100776.81
2023-02-21T16:40:53.487Z,100768.44
2023-02-21T16:43:25.131Z,100769.50
2023-02-21T16:45:56.452Z,100759.22
2023-02-21T16:48:32.766Z,100765.38
2023-02-21T16:51:04.747Z,100768.59
2023-02-21T16:53:32.826Z,100768.75
2023-02-21T16:56:03.629Z,100774.00
2023-02-21T16:58:36.685Z,100770.56
2023-02-21T17:01:12.908Z,100777.38
2023-02-21T17:03:42.477Z,100782.47
2023-02-21T17:06:18.792Z,100777.41
2023-02-21T17:08:47.015Z,100773.94
2023-02-21T17:11:15.176Z,100771.28
2023-02-21T17:13:43.256Z,100774.69
2023-02-21T17:16:11.419Z,100778.19
2023-02-21T17:18:39.312Z,100773.88
2023-02-21T17:21:08.474Z,100773.72
2023-02-21T17:23:37.275Z,100773.53
2023-02-21T17:26:05.214Z,100774.59
2023-02-21T17:28:34.441Z,100773.78
2023-02-21T17:31:02.356Z,100773.88
2023-02-21T17:33:30.320Z,100765.38
2023-02-21T17:35:58.370Z,100776.53
2023-02-21T17:38:27.490Z,100773.78
2023-02-21T17:40:59.263Z,100771.19
2023-02-21T17:43:27.123Z,100772.00
2023-02-21T17:45:54.906Z,100773.88
2023-02-21T17:48:23.056Z,100772.19
2023-02-21T17:50:50.977Z,100773.06
2023-02-21T17:53:18.742Z,100769.53
2023-02-21T17:55:48.608Z,100771.06
2023-02-21T17:58:16.403Z,100772.00
2023-02-21T18:00:45.290Z,100775.22
2023-02-21T18:03:13.294Z,100776.75
2023-02-21T18:05:41.102Z,100775.16
2023-02-21T18:08:08.910Z,100780.34
2023-02-21T18:10:36.890Z,100783.88
2023-02-21T18:13:06.072Z,100774.25
2023-02-21T18:15:33.914Z,100776.81
2023-02-21T18:18:06.883Z,100777.63
2023-02-21T18:20:35.927Z,100776.09
2023-02-21T18:23:06.510Z,100773.22
2023-02-21T18:25:35.665Z,100770.63
2023-02-21T18:28:05.980Z,100776.47
2023-02-21T18:30:34.024Z,100779.91
2023-02-21T18:33:02.193Z,100776.56
2023-02-21T18:35:30.069Z,100777.09
2023-02-21T18:37:58.023Z,100775.88
2023-02-21T18:40:34.404Z,100781.16
2023-02-21T18:43:02.560Z,100777.97
2023-02-21T18:45:34.033Z,100774.66
2023-02-21T18:48:03.190Z,100786.06
2023-02-21T18:50:30.931Z,100780.16
2023-02-21T18:52:59.564Z,100781.94
2023-02-21T18:55:27.355Z,100782.00
2023-02-21T18:57:55.407Z,100773.38
2023-02-21T19:00:24.727Z,100782.25
2023-02-21T19:02:54.139Z,100770.13
2023-02-21T19:05:25.101Z,100769.41
2023-02-21T19:07:53.913Z,100769.25
2023-02-21T19:10:28.410Z,100766.50
2023-02-21T19:12:59.209Z,100768.44
2023-02-21T19:15:27.221Z,100760.56
2023-02-21T19:17:57.552Z,100761.47
2023-02-21T19:20:25.794Z,100759.81
2023-02-21T19:22:55.970Z,100761.47
2023-02-21T19:25:27.883Z,100752.63
2023-02-21T19:28:00.718Z,100752.69
2023-02-21T19:30:33.650Z,100747.50
2023-02-21T19:33:05.010Z,100749.44
2023-02-21T19:35:34.918Z,100751.09
2023-02-21T19:38:06.140Z,100742.38
2023-02-21T19:40:35.396Z,100741.56
2023-02-21T19:43:04.050Z,100741.50
2023-02-21T19:45:32.460Z,100740.50
2023-02-21T19:48:00.636Z,100736.81
2023-02-21T19:50:34.800Z,100736.56
2023-02-21T19:53:02.855Z,100736.47
2023-02-21T19:55:31.245Z,100740.53
2023-02-21T19:57:59.547Z,100738.72
2023-02-21T20:00:27.754Z,100739.38
2023-02-21T20:02:55.692Z,100728.69
2023-02-21T20:05:23.919Z,100733.88
2023-02-21T20:07:53.513Z,100732.69
2023-02-21T20:10:25.436Z,100732.72
2023-02-21T20:12:55.747Z,100729.31
2023-02-21T20:15:24.685Z,100725.06
2023-02-21T20:17:54.304Z,100739.91
2023-02-21T20:20:22.567Z,100732.19
2023-02-21T20:22:51.163Z,100736.38
2023-02-21T20:25:21.182Z,100730.34
2023-02-21T20:27:49.242Z,100730.25
2023-02-21T20:30:17.596Z,100731.28
2023-02-21T20:32:45.872Z,100726.25
2023-02-21T20:35:13.905Z,100726.25
2023-02-21T20:37:41.964Z,100726.25
2023-02-21T20:40:11.329Z,100728.84
2023-02-21T20:42:41.254Z,100725.50
2023-02-21T20:45:13.384Z,100727.41
2023-02-21T20:47:41.519Z,100722.22
2023-02-21T20:50:10.014Z,100722.22
2023-02-21T20:52:40.356Z,100724.88
2023-02-21T20:55:09.733Z,100727.41
2023-02-21T20:57:37.722Z,100729.09
2023-02-21T21:00:12.643Z,100722.16
2023-02-21T21:02:41.929Z,100720.31
2023-02-21T21:05:13.958Z,100717.84
2023-02-21T21:07:46.111Z,100720.31
2023-02-21T21:10:16.697Z,100723.91
2023-02-21T21:12:45.472Z,100718.56
2023-02-21T21:15:15.804Z,100718.16
2023-02-21T21:17:43.859Z,100718.16
2023-02-21T21:20:17.618Z,100720.69
2023-02-21T21:22:46.468Z,100712.19
2023-02-21T21:25:16.924Z,100708.47
2023-02-21T21:27:45.820Z,100716.28
2023-02-21T21:30:22.571Z,100710.69
2023-02-21T21:32:50.765Z,100713.56
2023-02-21T21:35:20.217Z,100708.72
2023-02-21T21:37:49.565Z,100707.50
2023-02-21T21:40:17.836Z,100706.69
2023-02-21T21:42:49.709Z,100698.06
2023-02-21T21:45:25.109Z,100697.22
2023-02-21T21:47:59.154Z,100694.44
2023-02-21T21:50:27.397Z,100695.25
2023-02-21T21:52:58.301Z,100688.22
2023-02-21T21:55:29.150Z,100684.84
2023-02-21T21:57:58.895Z,100681.97
2023-02-21T22:00:30.411Z,100686.75
2023-02-21T22:03:01.915Z,100678.34
2023-02-21T22:05:32.014Z,100681.09
2023-02-21T22:08:00.222Z,100674.97
2023-02-21T22:10:29.350Z,100675.06
2023-02-21T22:13:00.502Z,100671.53
2023-02-21T22:15:30.238Z,100675.63
2023-02-21T22:18:03.741Z,100667.72
2023-02-21T22:20:31.687Z,100661.66
2023-02-21T22:23:00.364Z,100668.31
2023-02-21T22:25:30.560Z,100663.97
2023-02-21T22:28:02.536Z,100659.97
2023-02-21T22:30:31.935Z,100662.34
2023-02-21T22:32:59.931Z,100651.97
2023-02-21T22:35:28.529Z,100640.84
2023-02-21T22:38:02.032Z,100643.16
2023-02-21T22:40:35.465Z,100638.72
2023-02-21T22:43:08.950Z,100631.63
2023-02-21T22:45:38.695Z,100634.13
2023-02-21T22:48:10.002Z,100637.84
2023-02-21T22:50:39.381Z,100636.81
2023-02-21T22:53:13.010Z,100627.94
2023-02-21T22:55:41.031Z,100632.25
2023-02-21T22:58:10.107Z,100626.06
2023-02-21T23:00:39.430Z,100631.38
2023-02-21T23:03:15.690Z,100619.28
2023-02-21T23:05:46.804Z,100620.72
2023-02-21T23:08:18.405Z,100617.41
2023-02-21T23:10:47.768Z,100624.94
2023-02-21T23:13:20.800Z,100620.72
2023-02-21T23:15:51.709Z,100610.53
2023-02-21T23:18:21.003Z,100610.34
2023-02-21T23:20:53.080Z,100607.06
2023-02-21T23:23:25.806Z,100610.03
2023-02-21T23:25:59.253Z,100603.97
2023-02-21T23:28:30.450Z,100604.41
2023-02-21T23:30:59.736Z,100605.72
2023-02-21T23:33:30.240Z,100600.75
2023-02-21T23:35:58.627Z,100604.28
2023-02-21T23:38:28.533Z,100604.31
2023-02-21T23:40:58.810Z,100602.72
2023-02-21T23:43:29.793Z,100604.44
2023-02-21T23:46:00.253Z,100598.06
2023-02-21T23:48:29.703Z,100601.34
2023-02-21T23:50:58.175Z,100597.00
2023-02-21T23:53:29.393Z,100600.47
2023-02-21T23:56:00.337Z,100592.47
2023-02-21T23:58:33.913Z,100587.38
